Time;durP1;ratioP1;P1;durP2;ratioP2;P2;SDS_P1;SDS_P2;PMS_P1;PMS_P2;Temp;Humidity;BMP_temperature;BMP_pressure;BME280_temperature;BME280_humidity;BME280_pressure;Samples;Min_cycle;Max_cycle;Signal;HPM_P1;HPM_P2
2022/11/08 00:02:03;;;;;;;;;;;22.90;90.80;;;;;;5041177;28;19920;-68
2022/11/08 00:04:31;;;;;;;;;;;22.90;89.70;;;;;;5040389;28;19909;-67
2022/11/08 00:15:11;;;;;;;;;;;23.50;85.10;;;;;;5041127;28;19924;-67
2022/11/08 00:17:38;;;;;;;;;;;23.50;84.80;;;;;;5037405;28;19925;-67
2022/11/08 00:20:05;;;;;;;;;;;23.70;77.90;;;;;;5026160;28;19917;-68
2022/11/08 00:22:32;;;;;;;;;;;23.90;74.60;;;;;;5033985;28;20011;-68
2022/11/08 00:24:59;;;;;;;;;;;24.10;71.90;;;;;;5039706;28;19963;-68
2022/11/08 00:27:26;;;;;;;;;;;24.20;69.80;;;;;;5036425;28;19971;-68
2022/11/08 00:29:52;;;;;;;;;;;24.50;71.90;;;;;;5051324;28;19912;-67
2022/11/08 00:32:21;;;;;;;;;;;24.70;71.10;;;;;;5060566;28;19967;-68
2022/11/08 00:34:48;;;;;;;;;;;24.70;70.60;;;;;;5057702;28;19913;-68
2022/11/08 00:37:15;;;;;;;;;;;24.80;70.80;;;;;;5040399;28;19925;-67
2022/11/08 00:39:42;;;;;;;;;;;24.50;71.00;;;;;;5034440;28;19939;-68
2022/11/08 00:42:09;;;;;;;;;;;24.60;71.70;;;;;;5022722;28;19913;-67
2022/11/08 00:44:35;;;;;;;;;;;24.40;73.20;;;;;;5019320;28;20361;-68
2022/11/08 00:47:02;;;;;;;;;;;24.10;74.10;;;;;;5035164;28;20261;-67
2022/11/08 00:49:29;;;;;;;;;;;24.30;74.40;;;;;;5039484;28;19916;-68
2022/11/08 00:51:55;;;;;;;;;;;24.60;74.90;;;;;;5030327;28;19913;-67
2022/11/08 00:54:22;;;;;;;;;;;25.00;75.80;;;;;;5028868;28;20054;-67
2022/11/08 00:56:49;;;;;;;;;;;25.20;77.10;;;;;;5021559;28;20011;-67
2022/11/08 00:59:17;;;;;;;;;;;25.40;77.30;;;;;;5040282;28;20272;-67
2022/11/08 01:01:44;;;;;;;;;;;25.50;76.60;;;;;;5038120;28;20313;-67
2022/11/08 01:04:11;;;;;;;;;;;25.70;71.50;;;;;;5040031;28;20306;-67
2022/11/08 01:06:38;;;;;;;;;;;25.50;73.50;;;;;;5038023;28;19952;-68
2022/11/08 01:09:05;;;;;;;;;;;25.20;74.10;;;;;;5060018;28;19959;-68
2022/11/08 01:11:32;;;;;;;;;;;25.10;76.20;;;;;;5045402;28;19995;-66
2022/11/08 01:13:59;;;;;;;;;;;25.10;78.80;;;;;;5039048;28;19921;-67
2022/11/08 01:16:27;;;;;;;;;;;25.20;76.30;;;;;;5027128;28;19928;-68
2022/11/08 01:18:54;;;;;;;;;;;25.60;73.00;;;;;;5029292;28;19920;-68
2022/11/08 01:21:21;;;;;;;;;;;25.50;76.00;;;;;;5043980;28;19921;-67
2022/11/08 01:23:48;;;;;;;;;;;25.60;74.70;;;;;;5043030;28;19916;-69
2022/11/08 01:26:16;;;;;;;;;;;25.60;77.10;;;;;;5042769;28;19909;-68
2022/11/08 01:28:43;;;;;;;;;;;25.20;74.60;;;;;;5043217;28;19909;-68
2022/11/08 01:31:14;;;;;;;;;;;24.80;78.20;;;;;;5022256;28;20403;-68
2022/11/08 01:33:41;;;;;;;;;;;24.80;79.60;;;;;;5042522;28;19986;-67
2022/11/08 01:36:08;;;;;;;;;;;24.90;80.40;;;;;;5042366;28;19920;-67
2022/11/08 01:38:35;;;;;;;;;;;25.00;80.40;;;;;;5041534;28;19913;-66
2022/11/08 01:41:02;;;;;;;;;;;25.20;80.00;;;;;;5042445;28;20027;-67
2022/11/08 01:43:39;;;;;;;;;;;25.30;81.40;;;;;;5037867;28;19928;-68
2022/11/08 01:46:09;;;;;;;;;;;25.20;82.60;;;;;;5036691;28;20377;-67
2022/11/08 01:48:41;;;;;;;;;;;25.10;81.40;;;;;;5042768;28;19932;-68
2022/11/08 01:51:10;;;;;;;;;;;25.30;80.60;;;;;;5033884;28;20385;-67
2022/11/08 01:53:36;;;;;;;;;;;25.20;81.90;;;;;;5031519;28;19974;-68
2022/11/08 01:56:03;;;;;;;;;;;25.20;82.20;;;;;;5040885;28;20611;-67
2022/11/08 01:58:33;;;;;;;;;;;25.00;81.00;;;;;;5041130;28;19913;-67
2022/11/08 02:01:01;;;;;;;;;;;25.00;83.30;;;;;;5041060;28;19951;-67
2022/11/08 02:03:29;;;;;;;;;;;25.10;81.40;;;;;;5041583;28;19908;-67
2022/11/08 02:05:56;;;;;;;;;;;25.20;81.80;;;;;;5026657;28;20280;-67
2022/11/08 02:08:29;;;;;;;;;;;25.50;80.80;;;;;;5052744;28;20361;-67
2022/11/08 02:10:57;;;;;;;;;;;25.70;81.70;;;;;;5039037;28;20066;-67
2022/11/08 02:13:24;;;;;;;;;;;25.80;78.10;;;;;;5034352;28;19920;-67
2022/11/08 02:15:51;;;;;;;;;;;26.10;77.50;;;;;;5036216;28;19928;-67
2022/11/08 02:18:19;;;;;;;;;;;26.30;75.80;;;;;;5040763;28;19909;-66
2022/11/08 02:20:48;;;;;;;;;;;26.60;76.80;;;;;;5041675;28;19913;-65
2022/11/08 02:23:24;;;;;;;;;;;26.50;70.20;;;;;;5023726;28;20374;-66
2022/11/08 02:25:51;;;;;;;;;;;26.40;73.60;;;;;;5022415;28;20384;-66
2022/11/08 02:28:18;;;;;;;;;;;26.30;72.50;;;;;;5023614;28;20021;-66
2022/11/08 02:30:45;;;;;;;;;;;26.20;70.00;;;;;;5036482;28;20280;-66
2022/11/08 02:33:15;;;;;;;;;;;26.40;69.40;;;;;;5039780;28;20297;-67
2022/11/08 02:35:44;;;;;;;;;;;26.60;68.50;;;;;;5027953;28;19909;-67
2022/11/08 02:38:10;;;;;;;;;;;26.80;69.20;;;;;;5038243;28;19928;-68
2022/11/08 02:40:47;;;;;;;;;;;26.90;65.50;;;;;;5026871;28;19916;-67
2022/11/08 02:43:13;;;;;;;;;;;27.00;67.10;;;;;;5034511;28;19913;-69
2022/11/08 02:45:40;;;;;;;;;;;27.20;65.00;;;;;;5030525;28;20370;-68
2022/11/08 02:48:06;;;;;;;;;;;28.10;70.10;;;;;;5051247;28;19954;-66
2022/11/08 02:50:33;;;;;;;;;;;28.40;67.70;;;;;;5054810;28;19959;-67
2022/11/08 02:53:00;;;;;;;;;;;28.50;67.70;;;;;;5038189;28;20373;-67
2022/11/08 02:55:27;;;;;;;;;;;29.00;67.40;;;;;;5030861;28;19913;-66
2022/11/08 02:57:54;;;;;;;;;;;29.70;68.40;;;;;;5054506;28;19925;-67
2022/11/08 03:00:21;;;;;;;;;;;30.60;70.10;;;;;;5036943;28;20250;-66
2022/11/08 03:02:52;;;;;;;;;;;31.70;68.50;;;;;;5035674;28;20535;-67
2022/11/08 03:05:19;;;;;;;;;;;31.90;67.70;;;;;;5040510;28;19920;-67
2022/11/08 03:07:45;;;;;;;;;;;32.20;62.90;;;;;;5006346;28;19921;-68
2022/11/08 03:10:12;;;;;;;;;;;32.20;63.40;;;;;;5049379;28;20437;-68
2022/11/08 03:12:39;;;;;;;;;;;32.30;63.50;;;;;;5062637;28;20359;-66
2022/11/08 03:15:06;;;;;;;;;;;32.80;62.30;;;;;;5038053;28;20455;-67
2022/11/08 03:17:33;;;;;;;;;;;32.00;62.90;;;;;;5031038;28;19928;-67
2022/11/08 03:20:00;;;;;;;;;;;32.20;64.60;;;;;;5041686;28;19915;-67
2022/11/08 03:22:27;;;;;;;;;;;31.80;62.60;;;;;;5039204;28;19925;-67
2022/11/08 03:24:53;;;;;;;;;;;30.90;65.20;;;;;;5035807;28;20294;-67
2022/11/08 03:27:20;;;;;;;;;;;31.10;65.60;;;;;;5039058;28;20114;-67
2022/11/08 03:29:47;;;;;;;;;;;32.70;64.20;;;;;;5041738;28;19909;-68
2022/11/08 03:32:14;;;;;;;;;;;32.80;62.80;;;;;;5039449;28;19909;-67
2022/11/08 03:34:41;;;;;;;;;;;33.30;63.20;;;;;;5040635;28;20163;-67
2022/11/08 03:37:08;;;;;;;;;;;33.00;64.60;;;;;;5038699;28;19923;-67
2022/11/08 03:39:35;;;;;;;;;;;32.40;66.80;;;;;;5040391;28;20238;-68
2022/11/08 03:42:03;;;;;;;;;;;32.10;65.20;;;;;;5040303;28;20397;-68
2022/11/08 03:44:30;;;;;;;;;;;32.20;65.20;;;;;;5040146;28;19908;-68
2022/11/08 03:46:57;;;;;;;;;;;32.50;63.60;;;;;;5041054;28;19919;-67
2022/11/08 03:49:23;;;;;;;;;;;32.50;62.90;;;;;;5040304;28;20138;-68
2022/11/08 03:51:50;;;;;;;;;;;32.50;63.10;;;;;;5041305;28;19955;-67
2022/11/08 03:54:17;;;;;;;;;;;33.20;61.30;;;;;;5040575;28;19909;-67
2022/11/08 03:56:43;;;;;;;;;;;32.90;61.50;;;;;;5041818;28;19924;-67
2022/11/08 03:59:11;;;;;;;;;;;32.10;66.20;;;;;;5031938;28;19974;-67
2022/11/08 04:01:38;;;;;;;;;;;32.60;65.20;;;;;;5013520;28;19913;-68
2022/11/08 04:04:05;;;;;;;;;;;33.30;63.20;;;;;;5030554;28;20263;-68
2022/11/08 04:06:32;;;;;;;;;;;32.50;64.30;;;;;;5033120;28;19921;-67
2022/11/08 04:08:58;;;;;;;;;;;32.20;63.60;;;;;;5032278;28;19909;-67
2022/11/08 04:16:55;;;;;;;;;;;32.80;61.60;;;;;;5030907;28;19927;-66
2022/11/08 04:22:06;;;;;;;;;;;33.70;62.40;;;;;;5031010;28;20047;-66
2022/11/08 04:24:33;;;;;;;;;;;33.20;62.00;;;;;;5030969;28;19916;-66
2022/11/08 04:27:01;;;;;;;;;;;31.90;63.50;;;;;;5030847;28;20160;-68
2022/11/08 04:29:28;;;;;;;;;;;31.10;64.60;;;;;;5027872;28;19920;-68
2022/11/08 04:31:55;;;;;;;;;;;31.00;65.30;;;;;;5032053;28;19913;-68
2022/11/08 04:34:21;;;;;;;;;;;31.40;65.00;;;;;;5028793;28;20085;-67
2022/11/08 04:36:48;;;;;;;;;;;31.30;64.70;;;;;;5030519;28;20419;-68
2022/11/08 04:39:15;;;;;;;;;;;31.70;62.70;;;;;;5029129;28;19924;-69
2022/11/08 04:41:41;;;;;;;;;;;32.50;62.50;;;;;;5030026;28;19916;-67
2022/11/08 04:44:08;;;;;;;;;;;32.70;62.90;;;;;;5024354;28;20121;-70
2022/11/08 04:46:34;;;;;;;;;;;32.10;62.20;;;;;;5025553;28;19917;-68
2022/11/08 04:49:01;;;;;;;;;;;32.80;61.70;;;;;;5030221;28;19956;-68
2022/11/08 04:51:29;;;;;;;;;;;33.40;60.90;;;;;;5029705;28;19920;-67
2022/11/08 04:53:57;;;;;;;;;;;33.80;60.80;;;;;;5032549;28;20426;-67
2022/11/08 04:56:24;;;;;;;;;;;34.50;60.00;;;;;;5031931;28;20425;-68
2022/11/08 04:58:54;;;;;;;;;;;33.40;61.40;;;;;;5034991;28;19919;-67
2022/11/08 05:01:22;;;;;;;;;;;32.80;61.00;;;;;;5031305;28;20368;-68
2022/11/08 05:03:50;;;;;;;;;;;32.60;59.70;;;;;;5035489;28;20391;-66
2022/11/08 05:06:24;;;;;;;;;;;32.00;62.70;;;;;;5032910;28;20389;-67
2022/11/08 05:08:52;;;;;;;;;;;31.70;60.90;;;;;;5033428;28;19909;-66
2022/11/08 05:11:20;;;;;;;;;;;31.50;63.30;;;;;;5032811;28;19939;-68
2022/11/08 05:13:47;;;;;;;;;;;32.00;62.30;;;;;;5033457;28;19909;-68
2022/11/08 05:16:15;;;;;;;;;;;32.30;62.70;;;;;;5038058;28;19921;-67
2022/11/08 05:18:42;;;;;;;;;;;33.70;60.20;;;;;;5032839;28;20519;-67
2022/11/08 05:23:55;;;;;;;;;;;33.60;60.40;;;;;;5039628;28;20277;-68
2022/11/08 05:26:22;;;;;;;;;;;32.00;63.80;;;;;;5034471;28;19936;-67
2022/11/08 05:28:48;;;;;;;;;;;33.10;63.10;;;;;;5014148;28;19909;-68
2022/11/08 05:31:15;;;;;;;;;;;34.00;60.70;;;;;;5035910;28;19947;-67
2022/11/08 05:33:42;;;;;;;;;;;34.80;60.40;;;;;;5031421;28;20525;-68
2022/11/08 05:36:10;;;;;;;;;;;34.20;58.60;;;;;;5036478;28;19995;-66
2022/11/08 05:38:37;;;;;;;;;;;33.70;60.20;;;;;;5032868;28;19917;-68
2022/11/08 05:41:03;;;;;;;;;;;33.20;61.00;;;;;;5018450;28;19909;-66
2022/11/08 05:43:30;;;;;;;;;;;32.90;62.10;;;;;;5030989;28;19956;-67
2022/11/08 05:45:57;;;;;;;;;;;33.60;61.50;;;;;;5033727;28;19978;-68
2022/11/08 05:48:24;;;;;;;;;;;34.40;58.80;;;;;;5035156;28;19912;-68
2022/11/08 05:50:51;;;;;;;;;;;34.20;59.50;;;;;;5032956;28;19954;-69
2022/11/08 05:53:17;;;;;;;;;;;34.40;59.90;;;;;;5033084;28;20372;-68
2022/11/08 05:55:44;;;;;;;;;;;34.00;60.70;;;;;;5030013;28;19958;-69
2022/11/08 05:58:11;;;;;;;;;;;33.60;61.20;;;;;;5013790;28;19913;-68
2022/11/08 06:00:37;;;;;;;;;;;32.90;62.80;;;;;;5032997;28;19917;-69
2022/11/08 06:03:05;;;;;;;;;;;32.90;62.70;;;;;;5041001;28;20548;-66
2022/11/08 06:05:32;;;;;;;;;;;32.90;62.80;;;;;;5039464;28;19939;-68
2022/11/08 06:07:59;;;;;;;;;;;32.90;63.00;;;;;;5035294;28;19952;-67
2022/11/08 06:10:26;;;;;;;;;;;31.40;65.00;;;;;;5030902;28;20012;-68
2022/11/08 06:12:52;;;;;;;;;;;30.40;67.70;;;;;;5028757;28;20305;-68
2022/11/08 06:15:19;;;;;;;;;;;29.30;69.50;;;;;;5033233;28;20258;-68
2022/11/08 06:17:46;;;;;;;;;;;28.40;70.90;;;;;;5028552;28;19921;-67
2022/11/08 06:20:12;;;;;;;;;;;28.00;72.30;;;;;;5030065;28;19913;-67
2022/11/08 06:22:39;;;;;;;;;;;27.90;73.20;;;;;;5031825;28;19928;-69
2022/11/08 06:25:05;;;;;;;;;;;27.40;74.00;;;;;;5033932;28;19917;-69
2022/11/08 06:27:32;;;;;;;;;;;26.50;76.10;;;;;;5012496;28;20000;-65
2022/11/08 06:29:59;;;;;;;;;;;25.90;78.70;;;;;;5032476;28;19913;-68
2022/11/08 06:32:25;;;;;;;;;;;25.90;77.90;;;;;;5037183;28;19959;-67
2022/11/08 06:34:52;;;;;;;;;;;25.50;78.70;;;;;;5032144;28;19910;-67
2022/11/08 06:37:18;;;;;;;;;;;24.90;79.40;;;;;;5033846;28;19925;-68
2022/11/08 06:39:45;;;;;;;;;;;25.00;80.40;;;;;;5030529;28;19944;-68
2022/11/08 06:42:13;;;;;;;;;;;25.10;79.30;;;;;;5031121;28;19908;-67
2022/11/08 06:44:39;;;;;;;;;;;24.80;80.80;;;;;;5031826;28;19943;-69
2022/11/08 06:47:06;;;;;;;;;;;24.70;80.00;;;;;;5030855;28;19920;-68
2022/11/08 06:49:35;;;;;;;;;;;24.90;81.00;;;;;;5029583;28;19913;-69
2022/11/08 06:52:02;;;;;;;;;;;24.90;80.00;;;;;;5032064;28;19913;-68
2022/11/08 06:54:29;;;;;;;;;;;24.90;79.80;;;;;;5029977;28;20418;-69
2022/11/08 06:56:59;;;;;;;;;;;24.90;80.00;;;;;;5030765;28;20004;-70
2022/11/08 06:59:26;;;;;;;;;;;24.90;80.70;;;;;;5028176;28;19913;-70
2022/11/08 07:01:53;;;;;;;;;;;24.70;80.70;;;;;;5029509;28;19999;-67
2022/11/08 07:04:20;;;;;;;;;;;24.40;80.70;;;;;;5032593;28;20300;-68
2022/11/08 07:06:46;;;;;;;;;;;24.00;82.20;;;;;;5029914;28;19916;-69
2022/11/08 07:09:13;;;;;;;;;;;23.80;83.20;;;;;;5035125;28;20019;-68
2022/11/08 07:11:40;;;;;;;;;;;23.90;83.20;;;;;;5032063;28;20374;-68
2022/11/08 07:14:06;;;;;;;;;;;23.80;82.50;;;;;;5032003;28;19967;-66
2022/11/08 07:16:33;;;;;;;;;;;23.70;84.10;;;;;;5030947;28;19932;-68
2022/11/08 07:19:00;;;;;;;;;;;23.80;83.80;;;;;;5029669;28;19991;-68
2022/11/08 07:21:26;;;;;;;;;;;23.60;83.30;;;;;;5036076;28;20377;-68
2022/11/08 07:23:53;;;;;;;;;;;23.40;83.50;;;;;;5037839;28;19909;-68
2022/11/08 07:26:21;;;;;;;;;;;23.20;84.40;;;;;;5040364;28;19946;-67
2022/11/08 07:28:48;;;;;;;;;;;23.30;84.20;;;;;;5038749;28;19917;-66
2022/11/08 07:31:14;;;;;;;;;;;23.10;83.00;;;;;;5035956;28;19912;-67
2022/11/08 07:33:41;;;;;;;;;;;23.00;83.90;;;;;;5041176;28;19909;-67
2022/11/08 07:36:08;;;;;;;;;;;22.90;84.90;;;;;;5040202;28;20415;-67
2022/11/08 07:38:34;;;;;;;;;;;22.70;86.10;;;;;;5042218;28;19944;-67
2022/11/08 07:41:01;;;;;;;;;;;22.70;85.40;;;;;;5022631;28;20011;-67
2022/11/08 07:43:28;;;;;;;;;;;22.60;86.20;;;;;;5038167;28;19960;-67
2022/11/08 07:45:56;;;;;;;;;;;22.60;86.20;;;;;;5039761;28;19919;-67
2022/11/08 07:48:23;;;;;;;;;;;22.50;86.90;;;;;;5024446;28;19923;-69
2022/11/08 07:50:50;;;;;;;;;;;22.40;87.30;;;;;;5024889;28;19909;-67
2022/11/08 07:53:16;;;;;;;;;;;22.40;88.20;;;;;;5021494;28;19909;-67
2022/11/08 07:55:44;;;;;;;;;;;22.20;88.80;;;;;;5020958;28;20282;-66
2022/11/08 07:58:11;;;;;;;;;;;22.20;89.30;;;;;;5027759;28;19956;-68
2022/11/08 08:00:39;;;;;;;;;;;22.00;90.20;;;;;;5021300;28;19919;-66
2022/11/08 08:03:07;;;;;;;;;;;21.90;90.70;;;;;;5019501;28;19974;-69
2022/11/08 08:05:35;;;;;;;;;;;21.70;91.20;;;;;;5029953;28;19924;-69
2022/11/08 08:08:02;;;;;;;;;;;21.60;91.50;;;;;;5027994;28;19914;-69
2022/11/08 08:10:30;;;;;;;;;;;21.60;91.80;;;;;;5011874;28;19917;-67
2022/11/08 08:12:57;;;;;;;;;;;21.60;91.70;;;;;;5028735;28;19909;-67
2022/11/08 08:15:24;;;;;;;;;;;21.40;92.10;;;;;;5030096;28;19916;-68
2022/11/08 08:17:51;;;;;;;;;;;21.40;92.30;;;;;;5007806;28;20270;-68
2022/11/08 08:20:18;;;;;;;;;;;21.20;92.60;;;;;;5030221;28;19913;-68
2022/11/08 08:22:45;;;;;;;;;;;21.20;92.50;;;;;;5030594;28;19974;-67
2022/11/08 08:25:12;;;;;;;;;;;21.10;92.80;;;;;;5026638;28;19921;-69
2022/11/08 08:27:39;;;;;;;;;;;21.10;92.80;;;;;;5007685;28;19921;-68
2022/11/08 08:30:06;;;;;;;;;;;21.10;92.80;;;;;;5009477;28;19990;-67
2022/11/08 08:32:33;;;;;;;;;;;21.10;92.90;;;;;;5028406;28;20289;-66
2022/11/08 08:34:59;;;;;;;;;;;21.00;92.60;;;;;;5026931;28;19913;-67
2022/11/08 08:37:26;;;;;;;;;;;20.90;92.90;;;;;;5028176;28;19940;-68
2022/11/08 08:39:53;;;;;;;;;;;20.90;93.00;;;;;;5028241;28;19916;-69
2022/11/08 08:42:19;;;;;;;;;;;20.90;92.90;;;;;;5020362;28;19913;-67
2022/11/08 08:44:46;;;;;;;;;;;20.80;93.20;;;;;;5032063;28;19931;-65
2022/11/08 08:47:13;;;;;;;;;;;20.80;93.10;;;;;;5023225;28;20094;-68
2022/11/08 08:49:39;;;;;;;;;;;20.80;93.40;;;;;;5022917;28;19924;-67
2022/11/08 08:52:06;;;;;;;;;;;20.80;93.80;;;;;;5027692;28;19920;-67
2022/11/08 08:54:33;;;;;;;;;;;20.80;93.90;;;;;;5026950;28;20008;-67
2022/11/08 08:56:59;;;;;;;;;;;20.60;94.00;;;;;;5018194;28;20221;-67
2022/11/08 08:59:27;;;;;;;;;;;20.60;94.10;;;;;;5023185;28;19921;-66
2022/11/08 09:01:53;;;;;;;;;;;20.60;94.40;;;;;;5024314;28;19920;-64
2022/11/08 09:04:20;;;;;;;;;;;20.60;94.40;;;;;;5034140;28;20007;-66
2022/11/08 09:06:47;;;;;;;;;;;20.60;94.70;;;;;;5011843;28;20377;-66
2022/11/08 09:09:13;;;;;;;;;;;20.50;94.50;;;;;;5028432;28;19955;-65
2022/11/08 09:11:40;;;;;;;;;;;20.50;94.80;;;;;;5029636;28;19909;-66
2022/11/08 09:14:06;;;;;;;;;;;20.50;95.00;;;;;;5026827;28;20568;-66
2022/11/08 09:16:33;;;;;;;;;;;20.50;95.20;;;;;;5028309;28;19921;-68
2022/11/08 09:19:00;;;;;;;;;;;20.50;94.90;;;;;;5028854;28;20300;-66
2022/11/08 09:21:26;;;;;;;;;;;20.50;94.90;;;;;;5029542;28;19925;-66
2022/11/08 09:23:53;;;;;;;;;;;20.50;95.20;;;;;;5029268;28;20007;-65
2022/11/08 09:26:20;;;;;;;;;;;20.50;95.30;;;;;;5027066;28;20583;-66
2022/11/08 09:28:46;;;;;;;;;;;20.50;95.50;;;;;;5029122;28;20281;-67
2022/11/08 09:31:13;;;;;;;;;;;20.50;95.60;;;;;;5028177;28;19955;-67
2022/11/08 09:33:40;;;;;;;;;;;20.40;95.70;;;;;;5029097;28;19921;-67
2022/11/08 09:36:08;;;;;;;;;;;20.30;96.20;;;;;;5024985;28;20076;-66
2022/11/08 09:38:34;;;;;;;;;;;20.30;96.40;;;;;;5003612;28;19913;-64
2022/11/08 09:41:10;;;;;;;;;;;20.20;96.60;;;;;;5023216;28;19913;-66
2022/11/08 09:43:52;;;;;;;;;;;20.30;96.70;;;;;;5024716;28;19921;-66
2022/11/08 09:46:41;;;;;;;;;;;20.20;96.90;;;;;;5025163;28;19960;-67
2022/11/08 09:49:13;;;;;;;;;;;20.30;97.00;;;;;;5030451;28;19948;-67
2022/11/08 09:51:40;;;;;;;;;;;20.20;97.10;;;;;;5043609;28;19916;-67
2022/11/08 09:54:10;;;;;;;;;;;20.20;97.40;;;;;;5033150;28;19920;-67
2022/11/08 09:56:37;;;;;;;;;;;20.20;97.50;;;;;;5031910;28;20639;-67
2022/11/08 09:59:04;;;;;;;;;;;20.20;97.50;;;;;;5030386;28;19917;-68
2022/11/08 10:01:32;;;;;;;;;;;20.10;97.80;;;;;;5033906;28;19912;-65
2022/11/08 10:04:01;;;;;;;;;;;20.10;97.80;;;;;;5031639;28;20003;-66
2022/11/08 10:06:43;;;;;;;;;;;20.20;97.90;;;;;;5034655;28;19920;-67
2022/11/08 10:09:19;;;;;;;;;;;20.10;98.20;;;;;;5032221;28;19913;-65
2022/11/08 10:12:05;;;;;;;;;;;20.10;98.40;;;;;;5031851;28;19921;-65
2022/11/08 10:14:50;;;;;;;;;;;20.10;98.70;;;;;;4991116;28;20028;-65
2022/11/08 10:17:35;;;;;;;;;;;20.10;98.60;;;;;;5032827;28;19952;-65
2022/11/08 10:20:11;;;;;;;;;;;20.20;98.80;;;;;;5022460;28;20007;-65
2022/11/08 10:22:58;;;;;;;;;;;20.10;98.90;;;;;;5022172;28;20495;-65
2022/11/08 10:25:33;;;;;;;;;;;20.10;98.90;;;;;;5022018;28;19909;-64
2022/11/08 10:28:01;;;;;;;;;;;20.10;98.90;;;;;;5029745;28;19967;-65
2022/11/08 10:30:33;;;;;;;;;;;20.00;99.00;;;;;;5021586;28;19919;-64
2022/11/08 10:33:00;;;;;;;;;;;20.00;99.30;;;;;;5041385;28;19963;-65
2022/11/08 10:35:47;;;;;;;;;;;20.00;99.20;;;;;;5041679;28;19916;-67
2022/11/08 10:38:29;;;;;;;;;;;20.00;99.30;;;;;;5041844;28;20332;-66
2022/11/08 10:41:14;;;;;;;;;;;20.00;99.50;;;;;;5025233;28;19913;-65
2022/11/08 10:43:41;;;;;;;;;;;20.00;99.50;;;;;;5042469;28;19909;-66
2022/11/08 10:46:33;;;;;;;;;;;19.90;99.60;;;;;;5042854;28;19978;-66
2022/11/08 10:49:08;;;;;;;;;;;19.90;99.90;;;;;;5041794;28;19916;-67
2022/11/08 10:51:34;;;;;;;;;;;20.00;99.90;;;;;;5003384;28;20436;-64
2022/11/08 10:54:01;;;;;;;;;;;20.00;99.90;;;;;;5022313;28;19910;-66
2022/11/08 10:56:27;;;;;;;;;;;19.90;99.90;;;;;;5027252;28;19924;-65
2022/11/08 10:58:54;;;;;;;;;;;20.00;99.90;;;;;;5041515;28;19913;-65
2022/11/08 11:01:22;;;;;;;;;;;20.00;99.90;;;;;;5042080;28;19909;-66
2022/11/08 11:03:50;;;;;;;;;;;20.00;99.90;;;;;;5041588;28;19908;-66
2022/11/08 11:06:22;;;;;;;;;;;20.00;99.90;;;;;;5053363;28;19939;-65
2022/11/08 11:08:54;;;;;;;;;;;20.00;99.90;;;;;;5033163;28;20539;-67
2022/11/08 11:11:23;;;;;;;;;;;20.00;99.90;;;;;;5023061;28;20298;-66
2022/11/08 11:14:08;;;;;;;;;;;20.00;99.90;;;;;;5021671;28;19996;-66
2022/11/08 11:16:35;;;;;;;;;;;20.00;99.90;;;;;;5021777;28;19920;-66
2022/11/08 11:19:03;;;;;;;;;;;20.10;99.90;;;;;;5022147;28;19917;-66
2022/11/08 11:21:39;;;;;;;;;;;20.10;99.90;;;;;;5022406;28;19921;-66
2022/11/08 11:24:10;;;;;;;;;;;20.10;99.90;;;;;;5021357;28;19913;-65
2022/11/08 11:26:43;;;;;;;;;;;20.10;99.90;;;;;;5022977;28;20156;-65
2022/11/08 11:29:09;;;;;;;;;;;20.00;99.90;;;;;;5012506;28;20417;-65
2022/11/08 11:31:37;;;;;;;;;;;20.00;99.90;;;;;;5041520;28;19908;-67
2022/11/08 11:34:16;;;;;;;;;;;20.00;99.90;;;;;;5041345;28;20384;-65
2022/11/08 11:37:02;;;;;;;;;;;19.90;99.90;;;;;;5041683;28;19917;-65
2022/11/08 11:39:43;;;;;;;;;;;19.90;99.90;;;;;;5034449;28;20028;-65
2022/11/08 11:42:21;;;;;;;;;;;19.90;99.90;;;;;;5040963;28;19908;-66
2022/11/08 11:45:06;;;;;;;;;;;19.80;99.90;;;;;;5041110;28;20004;-66
2022/11/08 11:47:48;;;;;;;;;;;19.90;99.90;;;;;;5041295;28;19916;-65
2022/11/08 11:50:14;;;;;;;;;;;19.90;99.90;;;;;;5040558;28;19974;-65
2022/11/08 11:52:41;;;;;;;;;;;20.00;99.90;;;;;;5021676;28;19913;-64
2022/11/08 11:55:12;;;;;;;;;;;19.90;99.90;;;;;;5041857;28;20361;-65
2022/11/08 11:58:07;;;;;;;;;;;19.90;99.90;;;;;;5061201;28;19917;-65
2022/11/08 12:00:34;;;;;;;;;;;19.90;99.90;;;;;;5021444;28;19920;-65
2022/11/08 12:03:07;;;;;;;;;;;19.90;99.90;;;;;;5020150;28;19914;-65
2022/11/08 12:05:54;;;;;;;;;;;19.90;99.90;;;;;;5021133;28;19920;-65
2022/11/08 12:08:27;;;;;;;;;;;19.90;99.90;;;;;;5000202;28;20000;-66
2022/11/08 12:10:54;;;;;;;;;;;19.90;99.90;;;;;;5028164;28;19951;-65
2022/11/08 12:13:39;;;;;;;;;;;19.90;99.90;;;;;;5040949;28;19913;-65
2022/11/08 12:16:22;;;;;;;;;;;20.00;99.90;;;;;;5041012;28;20373;-65
2022/11/08 12:18:55;;;;;;;;;;;20.00;99.90;;;;;;5040957;28;20296;-66
2022/11/08 12:21:29;;;;;;;;;;;20.00;99.90;;;;;;5041190;28;19920;-66
2022/11/08 12:24:03;;;;;;;;;;;20.00;99.90;;;;;;5040984;28;20004;-65
2022/11/08 12:26:38;;;;;;;;;;;20.00;99.90;;;;;;5028946;28;19913;-65
2022/11/08 12:29:14;;;;;;;;;;;19.90;99.90;;;;;;5020649;28;19988;-64
2022/11/08 12:31:40;;;;;;;;;;;20.00;99.90;;;;;;5021337;28;19909;-64
2022/11/08 12:34:07;;;;;;;;;;;20.00;99.90;;;;;;5020930;28;19913;-64
2022/11/08 12:37:00;;;;;;;;;;;19.90;99.90;;;;;;5020617;28;19982;-66
2022/11/08 12:39:39;;;;;;;;;;;19.90;99.90;;;;;;5050360;23;19983;-71
2022/11/08 12:42:21;;;;;;;;;;;19.90;99.90;;;;;;5059702;28;19912;-71
2022/11/08 12:45:06;;;;;;;;;;;19.90;99.90;;;;;;5060594;28;19919;-70
2022/11/08 12:47:51;;;;;;;;;;;19.80;99.90;;;;;;5059698;28;19925;-71
2022/11/08 12:50:21;;;;;;;;;;;19.80;99.90;;;;;;5041122;28;20222;-71
2022/11/08 12:53:00;;;;;;;;;;;19.80;99.90;;;;;;5040763;28;19951;-71
2022/11/08 12:55:36;;;;;;;;;;;19.80;99.90;;;;;;5041225;28;19913;-71
2022/11/08 12:58:23;;;;;;;;;;;19.80;99.90;;;;;;5040868;28;19928;-71
2022/11/08 13:00:51;;;;;;;;;;;19.70;99.90;;;;;;5039541;28;19912;-71
2022/11/08 13:03:27;;;;;;;;;;;19.60;99.90;;;;;;5040457;28;19995;-71
2022/11/08 13:06:07;;;;;;;;;;;19.70;99.90;;;;;;5040090;28;19909;-72
2022/11/08 13:08:39;;;;;;;;;;;19.70;99.90;;;;;;5042256;28;19913;-71
2022/11/08 13:11:07;;;;;;;;;;;19.60;99.90;;;;;;5040745;28;19909;-71
2022/11/08 13:13:34;;;;;;;;;;;19.50;99.90;;;;;;5041832;28;20389;-72
2022/11/08 13:16:11;;;;;;;;;;;19.40;99.90;;;;;;5045071;28;19913;-71
2022/11/08 13:18:45;;;;;;;;;;;19.40;99.90;;;;;;5044632;28;20308;-71
2022/11/08 13:21:27;;;;;;;;;;;19.30;99.90;;;;;;5043468;28;20018;-70
2022/11/08 13:24:14;;;;;;;;;;;19.20;99.90;;;;;;5043795;28;19909;-70
2022/11/08 13:26:42;;;;;;;;;;;19.20;99.90;;;;;;5044313;28;19986;-70
2022/11/08 13:29:17;;;;;;;;;;;19.10;99.90;;;;;;5044211;28;19909;-71
2022/11/08 13:31:56;;;;;;;;;;;19.00;99.90;;;;;;5043797;28;19915;-70
2022/11/08 13:34:37;;;;;;;;;;;19.00;99.90;;;;;;5044032;28;20439;-70
2022/11/08 13:37:22;;;;;;;;;;;19.00;99.90;;;;;;5043893;28;19923;-70
2022/11/08 13:39:54;;;;;;;;;;;19.00;99.90;;;;;;5044041;28;20530;-69
2022/11/08 13:42:22;;;;;;;;;;;19.00;99.90;;;;;;5043885;28;19908;-70
2022/11/08 13:44:52;;;;;;;;;;;18.90;99.90;;;;;;5043863;28;19920;-71
2022/11/08 13:47:35;;;;;;;;;;;18.90;99.90;;;;;;5043498;28;19919;-71
2022/11/08 13:50:19;;;;;;;;;;;18.80;99.90;;;;;;5043328;28;19936;-70
2022/11/08 13:52:47;;;;;;;;;;;18.80;99.90;;;;;;5043651;28;19970;-71
2022/11/08 13:55:32;;;;;;;;;;;18.80;99.90;;;;;;5043566;28;19909;-71
2022/11/08 13:58:00;;;;;;;;;;;18.80;99.90;;;;;;5026937;28;19917;-71
2022/11/08 14:00:35;;;;;;;;;;;18.80;99.90;;;;;;5043236;28;20062;-70
2022/11/08 14:03:01;;;;;;;;;;;18.80;99.90;;;;;;5042290;28;19915;-70
2022/11/08 14:05:28;;;;;;;;;;;18.80;99.90;;;;;;5043486;28;19908;-71
2022/11/08 14:08:05;;;;;;;;;;;18.70;99.90;;;;;;5062758;28;19912;-70
2022/11/08 14:10:39;;;;;;;;;;;18.70;99.90;;;;;;5062929;28;19915;-71
2022/11/08 14:13:11;;;;;;;;;;;18.70;99.90;;;;;;5062847;28;19912;-69
2022/11/08 14:15:45;;;;;;;;;;;18.60;99.90;;;;;;5063310;28;20221;-70
2022/11/08 14:18:28;;;;;;;;;;;18.70;99.90;;;;;;5063047;28;19923;-70
2022/11/08 14:20:55;;;;;;;;;;;18.70;99.90;;;;;;5063040;28;20399;-70
2022/11/08 14:23:25;;;;;;;;;;;18.60;99.90;;;;;;5062304;28;20008;-70
2022/11/08 14:25:54;;;;;;;;;;;18.60;99.90;;;;;;5061229;28;20080;-70
2022/11/08 14:28:23;;;;;;;;;;;18.60;99.90;;;;;;5062673;28;20303;-70
2022/11/08 14:30:50;;;;;;;;;;;18.50;99.90;;;;;;5043613;28;19955;-70
2022/11/08 14:33:19;;;;;;;;;;;18.50;99.90;;;;;;5042855;28;19913;-70
2022/11/08 14:35:52;;;;;;;;;;;18.50;99.90;;;;;;5043168;28;19913;-70
2022/11/08 14:38:19;;;;;;;;;;;18.50;99.90;;;;;;5043063;28;20317;-70
2022/11/08 14:40:51;;;;;;;;;;;18.50;99.90;;;;;;5043178;28;19931;-71
2022/11/08 14:43:18;;;;;;;;;;;18.50;99.90;;;;;;5043218;28;19915;-70
2022/11/08 14:45:45;;;;;;;;;;;18.50;99.90;;;;;;5042876;28;20007;-70
2022/11/08 14:48:15;;;;;;;;;;;18.50;99.90;;;;;;5042402;28;19909;-69
2022/11/08 14:50:42;;;;;;;;;;;18.40;99.90;;;;;;5042574;28;19923;-70